Time;durP1;ratioP1;P1;durP2;ratioP2;P2;SDS_P1;SDS_P2;PMS_P1;PMS_P2;Temp;Humidity;BMP_temperature;BMP_pressure;BME280_temperature;BME280_humidity;BME280_pressure;Samples;Min_cycle;Max_cycle;Signal;HPM_P1;HPM_P2
2022/12/31 00:01:48;;;;;;;10.47;5.67;;;12.70;99.90;;;;;;5112661;28;20205;-75
2022/12/31 00:04:15;;;;;;;4.53;3.33;;;12.70;99.90;;;;;;5111365;28;20239;-74
2022/12/31 00:06:41;;;;;;;8.47;3.30;;;12.70;99.90;;;;;;5111728;28;20290;-74
2022/12/31 00:09:09;;;;;;;5.87;2.70;;;12.70;99.90;;;;;;5110160;28;20324;-74
2022/12/31 00:11:37;;;;;;;6.10;2.00;;;12.70;99.90;;;;;;5110068;28;20223;-74
2022/12/31 00:14:04;;;;;;;3.73;2.00;;;12.70;99.90;;;;;;5112216;28;20322;-75
2022/12/31 00:16:35;;;;;;;3.67;2.50;;;12.70;99.90;;;;;;5109063;28;20203;-75
2022/12/31 00:19:03;;;;;;;5.90;2.50;;;12.70;99.90;;;;;;5109377;28;20211;-75
2022/12/31 00:21:31;;;;;;;3.33;2.00;;;12.70;99.90;;;;;;5111666;28;20226;-74
2022/12/31 00:23:58;;;;;;;3.03;1.90;;;12.70;99.90;;;;;;5110327;28;20302;-74
2022/12/31 00:26:28;;;;;;;3.03;2.30;;;12.70;99.90;;;;;;5113295;28;20616;-74
2022/12/31 00:28:56;;;;;;;1.73;1.57;;;12.70;99.90;;;;;;5112147;28;20199;-75
2022/12/31 00:31:25;;;;;;;2.07;1.80;;;12.70;99.90;;;;;;5112997;28;20278;-75
2022/12/31 00:33:52;;;;;;;4.13;1.83;;;12.70;99.90;;;;;;5113150;28;20694;-75
2022/12/31 00:36:24;;;;;;;2.50;1.90;;;12.70;99.90;;;;;;5112474;28;20202;-75
2022/12/31 00:38:52;;;;;;;2.73;1.87;;;12.70;99.90;;;;;;5112464;28;20276;-75
2022/12/31 00:41:20;;;;;;;2.63;2.30;;;12.70;99.90;;;;;;5113668;28;20240;-75
2022/12/31 00:43:47;;;;;;;2.97;2.27;;;12.70;99.90;;;;;;5113053;28;20941;-75
2022/12/31 00:46:15;;;;;;;3.70;2.33;;;12.70;99.90;;;;;;5109131;28;20710;-74
2022/12/31 00:48:42;;;;;;;4.10;2.80;;;12.70;99.90;;;;;;5094053;28;20279;-75
2022/12/31 00:51:11;;;;;;;3.57;2.80;;;12.70;99.90;;;;;;5112075;28;20207;-75
2022/12/31 00:53:38;;;;;;;3.07;2.73;;;12.70;99.90;;;;;;5112001;28;20234;-74
2022/12/31 00:56:10;;;;;;;4.50;3.60;;;12.70;99.90;;;;;;5088432;28;20290;-74
2022/12/31 00:58:38;;;;;;;5.03;3.57;;;12.70;99.90;;;;;;5111608;28;20318;-74
2022/12/31 01:01:13;;;;;;;6.00;3.50;;;12.70;99.90;;;;;;5112380;28;20291;-74
2022/12/31 01:03:40;;;;;;;5.33;3.63;;;12.70;99.90;;;;;;5094502;28;20295;-75
2022/12/31 01:06:08;;;;;;;6.33;3.73;;;12.70;99.90;;;;;;5112508;28;20598;-74
2022/12/31 01:08:35;;;;;;;7.53;4.30;;;12.70;99.90;;;;;;5112773;28;20582;-74
2022/12/31 01:11:18;;;;;;;8.20;4.53;;;12.80;99.90;;;;;;5112956;28;20301;-74
2022/12/31 01:13:55;;;;;;;7.00;5.07;;;12.80;99.90;;;;;;5112222;28;20226;-74
2022/12/31 01:16:36;;;;;;;6.20;4.27;;;12.80;99.90;;;;;;5110412;28;20195;-75
2022/12/31 01:19:06;;;;;;;8.30;4.43;;;12.70;99.90;;;;;;5112206;28;20191;-74
2022/12/31 01:21:35;;;;;;;5.90;4.17;;;12.70;99.90;;;;;;5112658;28;20207;-75
2022/12/31 01:24:02;;;;;;;6.50;4.23;;;12.80;99.90;;;;;;5110111;28;20318;-75
2022/12/31 01:26:29;;;;;;;5.30;3.77;;;12.70;99.90;;;;;;5111347;28;20237;-75
2022/12/31 01:28:56;;;;;;;3.80;3.13;;;12.70;99.90;;;;;;5113015;28;20294;-74
2022/12/31 01:31:23;;;;;;;4.07;3.40;;;12.70;99.90;;;;;;5110433;28;20188;-74
2022/12/31 01:33:51;;;;;;;5.70;3.73;;;12.70;99.90;;;;;;5107699;28;20261;-75
2022/12/31 01:36:23;;;;;;;4.93;3.40;;;12.70;99.90;;;;;;5110482;28;20282;-74
2022/12/31 01:38:56;;;;;;;4.07;3.53;;;12.70;99.90;;;;;;5111030;28;20219;-73
2022/12/31 01:41:26;;;;;;;4.33;3.60;;;12.70;99.90;;;;;;5111980;28;20294;-74
2022/12/31 01:44:01;;;;;;;4.30;3.70;;;12.60;99.90;;;;;;5111302;28;20329;-73
2022/12/31 01:46:41;;;;;;;4.50;3.70;;;12.60;99.90;;;;;;5088398;28;20229;-75
2022/12/31 01:49:14;;;;;;;5.33;3.73;;;12.60;99.90;;;;;;5109325;28;20203;-74
2022/12/31 01:51:47;;;;;;;4.40;3.70;;;12.60;99.90;;;;;;5111532;28;20206;-74
2022/12/31 01:54:16;;;;;;;4.97;2.90;;;12.60;99.90;;;;;;5111659;28;20227;-74
2022/12/31 01:56:46;;;;;;;8.07;2.87;;;12.50;99.90;;;;;;5110921;28;20191;-74
2022/12/31 01:59:16;;;;;;;5.57;2.70;;;12.50;99.90;;;;;;5112006;28;20234;-74
2022/12/31 02:01:45;;;;;;;6.37;2.63;;;12.40;99.90;;;;;;5111996;28;20255;-74
2022/12/31 02:04:15;;;;;;;4.00;2.50;;;12.40;99.90;;;;;;5092867;28;20272;-74
2022/12/31 02:06:47;;;;;;;5.90;2.90;;;12.40;99.90;;;;;;5112112;28;20600;-74
2022/12/31 02:09:14;;;;;;;3.23;2.70;;;12.30;99.90;;;;;;5112324;28;20314;-74
2022/12/31 02:11:41;;;;;;;4.47;2.90;;;12.30;99.90;;;;;;5111879;28;20301;-74
2022/12/31 02:14:22;;;;;;;5.50;2.83;;;12.30;99.90;;;;;;5111452;28;20226;-74
2022/12/31 02:17:08;;;;;;;3.83;3.00;;;12.30;99.90;;;;;;5108065;28;20290;-74
2022/12/31 02:20:00;;;;;;;7.23;3.60;;;12.30;99.90;;;;;;5107689;28;20203;-74
2022/12/31 02:22:47;;;;;;;4.83;3.20;;;12.30;99.90;;;;;;5108815;28;20219;-74
2022/12/31 02:25:25;;;;;;;8.70;4.40;;;12.30;99.90;;;;;;5089561;28;20573;-74
2022/12/31 02:28:01;;;;;;;6.93;4.43;;;12.20;99.90;;;;;;5108622;28;20198;-74
2022/12/31 02:30:31;;;;;;;8.20;4.73;;;12.20;99.90;;;;;;5111536;28;20644;-74
2022/12/31 02:33:07;;;;;;;6.83;4.80;;;12.20;99.90;;;;;;5108655;28;20298;-75
2022/12/31 02:35:47;;;;;;;6.40;4.77;;;12.20;99.90;;;;;;5091166;28;20570;-74
2022/12/31 02:38:26;;;;;;;8.90;5.10;;;12.20;99.90;;;;;;5107589;28;20258;-74
2022/12/31 02:40:53;;;;;;;7.83;4.93;;;12.20;99.90;;;;;;5108895;28;20221;-74
2022/12/31 02:43:20;;;;;;;7.70;5.40;;;12.20;99.90;;;;;;5109357;28;20219;-75
2022/12/31 02:46:00;;;;;;;8.40;5.17;;;12.20;99.90;;;;;;5106751;28;20196;-74
2022/12/31 02:48:39;;;;;;;10.77;4.90;;;12.20;99.90;;;;;;5108089;28;20241;-74
2022/12/31 02:51:32;;;;;;;10.27;5.30;;;12.20;99.90;;;;;;5107198;28;20245;-74
2022/12/31 02:54:16;;;;;;;10.67;5.70;;;12.20;99.90;;;;;;5108862;28;20655;-74
2022/12/31 02:57:04;;;;;;;10.37;5.60;;;12.20;99.90;;;;;;5092029;28;20198;-74
2022/12/31 03:02:22;;;;;;;11.87;6.77;;;12.20;99.90;;;;;;5109677;28;20244;-75
2022/12/31 03:04:52;;;;;;;11.77;6.90;;;12.10;99.90;;;;;;5106594;28;20214;-74
2022/12/31 03:07:22;;;;;;;13.87;7.03;;;12.20;99.90;;;;;;5110576;28;20302;-75
2022/12/31 03:09:49;;;;;;;10.23;6.77;;;12.20;99.90;;;;;;5109544;28;20235;-74
2022/12/31 03:15:05;;;;;;;12.30;7.57;;;12.20;99.90;;;;;;5101473;28;20314;-75
2022/12/31 03:17:33;;;;;;;14.07;7.73;;;12.20;99.90;;;;;;5110505;28;20266;-74
2022/12/31 03:22:45;;;;;;;12.17;7.70;;;12.20;99.90;;;;;;5110487;28;20288;-75
2022/12/31 03:25:34;;;;;;;13.50;7.93;;;12.20;99.90;;;;;;5091788;28;20720;-74
2022/12/31 03:28:13;;;;;;;13.27;8.10;;;12.20;99.90;;;;;;5110624;28;20203;-75
2022/12/31 03:30:46;;;;;;;13.40;6.87;;;12.10;99.90;;;;;;5110257;28;20217;-74
2022/12/31 03:33:14;;;;;;;11.70;6.53;;;12.10;99.90;;;;;;5110646;28;20683;-75
2022/12/31 03:35:43;;;;;;;11.50;5.87;;;12.10;99.90;;;;;;5110431;28;20230;-74
2022/12/31 03:38:10;;;;;;;9.67;5.33;;;12.10;99.90;;;;;;5110242;28;20257;-74
2022/12/31 03:40:43;;;;;;;8.60;4.47;;;12.00;99.90;;;;;;5109480;28;20294;-74
2022/12/31 03:43:10;;;;;;;6.33;4.17;;;12.10;99.90;;;;;;5110197;28;20231;-74
2022/12/31 03:45:37;;;;;;;9.47;4.53;;;12.10;99.90;;;;;;5110276;28;20673;-74
2022/12/31 03:48:05;;;;;;;7.30;3.73;;;12.10;99.90;;;;;;5110554;28;20213;-74
2022/12/31 03:50:32;;;;;;;6.50;3.23;;;12.10;99.90;;;;;;5110549;28;20222;-74
2022/12/31 03:53:00;;;;;;;5.47;3.33;;;12.10;99.90;;;;;;5107372;28;20259;-74
2022/12/31 03:55:27;;;;;;;8.67;3.00;;;12.10;99.90;;;;;;5109884;28;20413;-74
2022/12/31 03:57:54;;;;;;;5.70;2.77;;;12.10;99.90;;;;;;5110140;28;20659;-75
2022/12/31 04:00:21;;;;;;;3.93;2.33;;;12.00;99.90;;;;;;5091050;28;20894;-75
2022/12/31 04:02:49;;;;;;;3.83;2.13;;;12.00;99.90;;;;;;5110006;28;20195;-75
2022/12/31 04:05:17;;;;;;;5.80;2.27;;;12.00;99.90;;;;;;5110470;28;20203;-75
2022/12/31 04:07:44;;;;;;;7.60;2.93;;;12.00;99.90;;;;;;5109496;28;20247;-75
2022/12/31 04:10:14;;;;;;;6.40;2.70;;;12.00;99.90;;;;;;5109906;28;20290;-74
2022/12/31 04:12:42;;;;;;;6.23;2.93;;;12.00;99.90;;;;;;5110224;28;20211;-75
2022/12/31 04:15:15;;;;;;;4.37;2.93;;;12.00;99.90;;;;;;5108508;28;20329;-75
2022/12/31 04:17:42;;;;;;;5.90;3.03;;;12.00;99.90;;;;;;5105371;28;20633;-75
2022/12/31 04:20:09;;;;;;;6.97;2.80;;;12.00;99.90;;;;;;5091919;28;20286;-75
2022/12/31 04:22:36;;;;;;;3.73;2.37;;;11.90;99.90;;;;;;5091507;28;20301;-74
2022/12/31 04:25:05;;;;;;;4.67;2.47;;;11.80;99.90;;;;;;5109772;28;20691;-74
2022/12/31 04:27:31;;;;;;;5.60;2.80;;;11.80;99.90;;;;;;5110641;28;20234;-74
2022/12/31 04:29:58;;;;;;;5.07;2.53;;;11.80;99.90;;;;;;5113703;28;20999;-73
2022/12/31 04:32:25;;;;;;;5.30;2.40;;;11.80;99.90;;;;;;5112926;28;20294;-73
2022/12/31 04:34:52;;;;;;;3.10;2.30;;;11.80;99.90;;;;;;5113176;28;20231;-73
2022/12/31 04:37:18;;;;;;;3.57;2.07;;;11.80;99.90;;;;;;5113429;28;20747;-73
2022/12/31 04:39:45;;;;;;;4.47;2.30;;;11.70;99.90;;;;;;5113126;28;20203;-73
2022/12/31 04:42:12;;;;;;;6.10;1.97;;;11.70;99.90;;;;;;5113423;28;20603;-73
2022/12/31 04:44:38;;;;;;;4.40;2.23;;;11.70;99.90;;;;;;5113501;28;20207;-73
2022/12/31 04:47:05;;;;;;;3.50;1.93;;;11.70;99.90;;;;;;5090705;28;20278;-73
2022/12/31 04:49:32;;;;;;;4.10;2.00;;;11.70;99.90;;;;;;5112093;28;20589;-75
2022/12/31 04:51:58;;;;;;;5.57;2.33;;;11.70;99.90;;;;;;5112804;28;20294;-74
2022/12/31 04:54:25;;;;;;;3.47;2.10;;;11.70;99.90;;;;;;5112425;28;20223;-74
2022/12/31 04:56:52;;;;;;;4.30;2.00;;;11.70;99.90;;;;;;5113039;28;20246;-74
2022/12/31 04:59:19;;;;;;;3.83;2.07;;;11.70;99.90;;;;;;5090715;28;20203;-74
2022/12/31 05:01:45;;;;;;;2.60;1.97;;;11.70;99.90;;;;;;5112823;28;20298;-73
2022/12/31 05:04:12;;;;;;;4.43;2.20;;;11.80;99.90;;;;;;5110203;28;20209;-73
2022/12/31 05:06:39;;;;;;;3.17;1.97;;;11.80;99.90;;;;;;5094698;28;20298;-74
2022/12/31 05:09:05;;;;;;;4.33;2.30;;;11.80;99.90;;;;;;5111627;28;20298;-74
2022/12/31 05:11:32;;;;;;;2.87;2.20;;;11.80;99.90;;;;;;5111282;28;20276;-73
2022/12/31 05:13:59;;;;;;;3.47;2.27;;;11.80;99.90;;;;;;5112514;28;20318;-73
2022/12/31 05:16:26;;;;;;;4.30;2.00;;;11.80;99.90;;;;;;5093675;28;20353;-74
2022/12/31 05:18:52;;;;;;;3.47;2.70;;;11.80;99.90;;;;;;5112028;28;20183;-74
2022/12/31 05:21:21;;;;;;;3.90;2.33;;;11.80;99.90;;;;;;5112266;28;20207;-74
2022/12/31 05:23:48;;;;;;;4.07;2.53;;;11.90;99.90;;;;;;5110395;28;20585;-74
2022/12/31 05:26:15;;;;;;;3.30;2.37;;;11.90;99.90;;;;;;5111510;28;20541;-74
2022/12/31 05:28:41;;;;;;;4.83;2.97;;;11.80;99.90;;;;;;5110993;28;20199;-74
2022/12/31 05:31:08;;;;;;;5.50;2.60;;;11.90;99.90;;;;;;5108022;28;20672;-74
2022/12/31 05:33:35;;;;;;;4.87;2.80;;;11.90;99.90;;;;;;5111896;28;20199;-74
2022/12/31 05:36:02;;;;;;;4.10;3.00;;;11.90;99.90;;;;;;5110311;28;20222;-73
2022/12/31 05:38:29;;;;;;;5.73;2.80;;;11.90;99.90;;;;;;5107116;28;20221;-74
2022/12/31 05:41:01;;;;;;;4.53;2.67;;;11.90;99.90;;;;;;5092930;28;20231;-74
2022/12/31 05:43:28;;;;;;;5.23;2.90;;;11.90;99.90;;;;;;5111525;28;20668;-71
2022/12/31 05:45:55;;;;;;;3.87;2.60;;;11.90;99.90;;;;;;5106369;28;20661;-74
2022/12/31 05:48:21;;;;;;;3.63;2.43;;;11.90;99.90;;;;;;5109009;28;20252;-73
2022/12/31 05:50:49;;;;;;;5.13;2.40;;;11.90;99.90;;;;;;5089236;28;20241;-73
2022/12/31 05:53:16;;;;;;;3.27;2.10;;;11.90;99.90;;;;;;5106172;28;20305;-73
2022/12/31 05:55:45;;;;;;;2.30;1.90;;;11.90;99.90;;;;;;5106085;28;20269;-74
2022/12/31 05:58:13;;;;;;;1.90;1.47;;;11.90;99.90;;;;;;5108212;28;20237;-72
2022/12/31 06:00:41;;;;;;;1.60;1.40;;;12.00;99.90;;;;;;5109897;28;20220;-74
2022/12/31 06:03:08;;;;;;;2.60;1.40;;;12.00;99.90;;;;;;5110536;28;20294;-73
2022/12/31 06:05:39;;;;;;;1.70;1.40;;;12.00;99.90;;;;;;5108234;28;20239;-73
2022/12/31 06:08:05;;;;;;;1.90;1.30;;;12.00;99.90;;;;;;5092359;28;20253;-73
2022/12/31 06:10:32;;;;;;;2.07;1.23;;;12.00;99.90;;;;;;5109766;28;20624;-72
2022/12/31 06:12:59;;;;;;;1.33;1.20;;;12.00;99.90;;;;;;5111415;28;20366;-73
2022/12/31 06:15:26;;;;;;;2.13;1.30;;;12.00;99.90;;;;;;5108511;28;20662;-73
2022/12/31 06:17:52;;;;;;;1.57;1.40;;;12.10;99.90;;;;;;5091178;28;20605;-72
2022/12/31 06:20:19;;;;;;;2.83;1.30;;;12.10;99.90;;;;;;5105937;28;20245;-72
2022/12/31 06:22:46;;;;;;;1.50;1.30;;;12.10;99.90;;;;;;5108599;28;20302;-73
2022/12/31 06:25:13;;;;;;;1.50;1.30;;;12.10;99.90;;;;;;5106534;28;20249;-73
2022/12/31 06:27:40;;;;;;;3.10;1.27;;;12.10;99.90;;;;;;5106041;28;20559;-74
2022/12/31 06:30:07;;;;;;;1.50;1.23;;;12.20;99.90;;;;;;5107485;28;20208;-73
2022/12/31 06:32:34;;;;;;;1.40;1.30;;;12.20;99.90;;;;;;5106115;28;20294;-73
2022/12/31 06:35:01;;;;;;;2.33;1.30;;;12.20;99.90;;;;;;5108119;28;20254;-74
2022/12/31 06:37:27;;;;;;;2.27;1.80;;;12.20;99.90;;;;;;5110861;28;20306;-73
2022/12/31 06:39:54;;;;;;;1.77;1.50;;;12.30;99.90;;;;;;5109573;28;20195;-71
2022/12/31 06:42:21;;;;;;;1.40;1.30;;;12.30;99.90;;;;;;5110530;28;20250;-73
2022/12/31 06:44:47;;;;;;;2.77;1.90;;;12.30;99.90;;;;;;5092019;28;20196;-73
2022/12/31 06:47:14;;;;;;;3.50;3.05;;;12.30;99.90;;;;;;5108667;28;20435;-73
2022/12/31 06:49:41;;;;;;;2.23;1.87;;;12.30;99.90;;;;;;5108092;28;20224;-73
2022/12/31 06:52:07;;;;;;;3.43;2.47;;;12.40;99.90;;;;;;5106947;28;20219;-74
2022/12/31 06:54:34;;;;;;;4.43;2.77;;;12.40;99.90;;;;;;5109606;28;20238;-73
2022/12/31 06:57:01;;;;;;;3.93;3.10;;;12.40;99.90;;;;;;5108172;28;20207;-73
2022/12/31 06:59:29;;;;;;;3.93;3.10;;;12.40;99.90;;;;;;5110805;28;20230;-73
2022/12/31 07:02:33;;;;;;;5.77;4.10;;;12.40;99.90;;;;;;5106405;28;20325;-73
2022/12/31 07:05:25;;;;;;;5.53;4.07;;;12.40;99.90;;;;;;5109815;28;20191;-73
2022/12/31 07:08:13;;;;;;;7.53;5.23;;;12.50;99.90;;;;;;5108496;28;20211;-73
2022/12/31 07:10:54;;;;;;;8.27;5.40;;;12.50;99.90;;;;;;5102550;28;20719;-73
2022/12/31 07:13:39;;;;;;;10.03;5.57;;;12.60;99.90;;;;;;5087892;28;20242;-73
2022/12/31 07:16:12;;;;;;;8.07;5.73;;;12.70;99.90;;;;;;5104611;28;20661;-73
2022/12/31 07:19:22;;;;;;;8.17;5.20;;;12.70;99.90;;;;;;5088822;28;20663;-74
2022/12/31 07:21:52;;;;;;;7.53;5.27;;;12.80;99.90;;;;;;5104297;28;20191;-72
2022/12/31 07:24:19;;;;;;;6.97;4.77;;;12.80;99.90;;;;;;5107477;28;20213;-72
2022/12/31 07:26:50;;;;;;;6.47;4.53;;;12.80;99.90;;;;;;5108860;28;20295;-73
2022/12/31 07:29:35;;;;;;;5.80;4.40;;;12.90;99.90;;;;;;5110657;28;20213;-72
2022/12/31 07:32:43;;;;;;;5.77;4.63;;;12.90;99.90;;;;;;5103983;28;20191;-72
2022/12/31 07:35:32;;;;;;;6.00;4.83;;;13.00;99.90;;;;;;5079176;28;20244;-72
2022/12/31 07:38:07;;;;;;;5.00;3.80;;;13.00;99.90;;;;;;5101018;28;20227;-70
2022/12/31 07:40:43;;;;;;;4.77;3.90;;;13.10;99.90;;;;;;5109038;28;20199;-70
2022/12/31 07:43:27;;;;;;;4.97;3.63;;;13.10;99.90;;;;;;5106094;28;20274;-73
2022/12/31 07:46:23;;;;;;;5.63;4.00;;;13.20;99.90;;;;;;5106754;28;20228;-71
2022/12/31 07:48:50;;;;;;;5.30;3.47;;;13.20;99.90;;;;;;5108827;28;20685;-71
2022/12/31 07:51:17;;;;;;;5.13;3.70;;;13.20;99.90;;;;;;5105771;28;20301;-71
2022/12/31 07:53:44;;;;;;;5.57;4.10;;;13.20;99.90;;;;;;5109543;28;20227;-70
2022/12/31 07:56:12;;;;;;;4.83;3.70;;;13.30;99.90;;;;;;5110018;28;20253;-71
2022/12/31 07:58:39;;;;;;;4.23;3.30;;;13.30;99.90;;;;;;5109726;28;20230;-70
2022/12/31 08:01:10;;;;;;;4.97;3.57;;;13.40;99.90;;;;;;5111003;28;20199;-71
2022/12/31 08:03:52;;;;;;;4.30;3.20;;;13.40;99.90;;;;;;5112829;28;20218;-71
2022/12/31 08:07:05;;;;;;;5.13;3.13;;;13.40;99.90;;;;;;5086128;28;20207;-71
2022/12/31 08:09:57;;;;;;;4.40;2.77;;;13.50;99.90;;;;;;5111661;28;20290;-71
2022/12/31 08:12:26;;;;;;;3.17;2.70;;;13.40;99.90;;;;;;5110915;28;20650;-71
2022/12/31 08:14:53;;;;;;;3.90;2.90;;;13.50;99.90;;;;;;5111030;28;20195;-71
2022/12/31 08:17:20;;;;;;;4.37;3.23;;;13.50;99.90;;;;;;5111763;28;20302;-71
2022/12/31 08:19:47;;;;;;;4.77;3.33;;;13.50;99.90;;;;;;5109940;28;20277;-71
2022/12/31 08:22:26;;;;;;;4.20;3.13;;;13.60;99.90;;;;;;5113183;28;20237;-72
2022/12/31 08:25:04;;;;;;;4.20;3.27;;;13.60;99.90;;;;;;5105587;28;20534;-71
2022/12/31 08:27:55;;;;;;;6.60;3.27;;;13.60;99.90;;;;;;5108291;28;20624;-72
2022/12/31 08:30:38;;;;;;;12.70;3.30;;;13.60;99.90;;;;;;5107418;28;20275;-72
2022/12/31 08:33:18;;;;;;;3.77;3.03;;;13.70;99.90;;;;;;5090861;28;20286;-72
2022/12/31 08:36:03;;;;;;;7.03;2.87;;;13.70;99.90;;;;;;5110701;28;20223;-72
2022/12/31 08:38:41;;;;;;;3.80;2.43;;;13.70;99.90;;;;;;5111550;28;20207;-72
2022/12/31 08:41:30;;;;;;;3.70;2.60;;;13.70;99.90;;;;;;5108053;28;20256;-71
2022/12/31 08:44:34;;;;;;;3.30;2.47;;;13.70;99.90;;;;;;5108295;28;20247;-72
2022/12/31 08:47:01;;;;;;;3.00;2.00;;;13.70;99.90;;;;;;5111472;28;20742;-72
2022/12/31 08:49:32;;;;;;;4.43;2.03;;;13.70;99.90;;;;;;5108910;28;20670;-73
2022/12/31 08:52:00;;;;;;;3.67;2.70;;;13.70;99.90;;;;;;5109679;28;20284;-73
2022/12/31 08:54:28;;;;;;;3.97;2.30;;;13.70;99.90;;;;;;5092675;28;20199;-73
2022/12/31 08:57:16;;;;;;;3.17;2.33;;;13.70;99.90;;;;;;5108816;28;20345;-73
2022/12/31 08:59:50;;;;;;;2.53;2.20;;;13.70;99.90;;;;;;5111090;28;20662;-73
2022/12/31 09:02:39;;;;;;;5.33;2.83;;;13.70;99.90;;;;;;5108005;28;20198;-73
2022/12/31 09:05:20;;;;;;;3.20;2.80;;;13.80;99.90;;;;;;5107544;28;20287;-73
2022/12/31 09:08:06;;;;;;;5.13;3.00;;;13.70;99.90;;;;;;5112133;28;20253;-73
2022/12/31 09:10:41;;;;;;;3.50;3.00;;;13.70;99.90;;;;;;5110229;28;20712;-73
2022/12/31 09:13:22;;;;;;;5.67;3.30;;;13.70;99.90;;;;;;5111873;28;20334;-72
2022/12/31 09:16:15;;;;;;;3.30;2.73;;;13.70;99.90;;;;;;5106767;28;20251;-74
2022/12/31 09:18:42;;;;;;;2.83;2.03;;;13.70;99.90;;;;;;5110227;28;20236;-74
2022/12/31 09:21:11;;;;;;;2.80;2.10;;;13.70;99.90;;;;;;5093599;28;20323;-73
2022/12/31 09:23:39;;;;;;;3.17;2.17;;;13.70;99.90;;;;;;5109737;28;20227;-73
2022/12/31 09:26:34;;;;;;;3.90;1.70;;;13.70;99.90;;;;;;5108764;28;20283;-73
2022/12/31 09:29:25;;;;;;;2.80;2.17;;;13.70;99.90;;;;;;5103037;28;20241;-73
2022/12/31 09:32:11;;;;;;;2.03;1.83;;;13.70;99.90;;;;;;5094382;28;20199;-73
2022/12/31 09:34:52;;;;;;;3.73;2.87;;;13.70;99.90;;;;;;5109197;28;20635;-73
2022/12/31 09:37:39;;;;;;;3.00;2.50;;;13.70;99.90;;;;;;5111896;28;20280;-73
2022/12/31 09:40:27;;;;;;;3.60;3.07;;;13.80;99.90;;;;;;5109634;28;20191;-73
2022/12/31 09:43:32;;;;;;;4.93;3.93;;;13.80;99.90;;;;;;5106450;28;20265;-73
2022/12/31 09:46:08;;;;;;;13.80;8.10;;;13.80;99.90;;;;;;5109117;28;20282;-73
2022/12/31 09:48:56;;;;;;;4.50;4.00;;;13.80;99.90;;;;;;5112150;28;20206;-74
2022/12/31 09:51:31;;;;;;;6.83;3.93;;;13.90;99.90;;;;;;5083157;28;20199;-73
2022/12/31 09:54:06;;;;;;;5.73;4.50;;;13.90;99.90;;;;;;5106966;28;20717;-72
2022/12/31 09:57:10;;;;;;;6.43;4.30;;;14.00;99.90;;;;;;5100842;28;20317;-71
2022/12/31 09:59:45;;;;;;;4.37;3.30;;;14.00;99.90;;;;;;5109707;28;20252;-71
2022/12/31 10:02:35;;;;;;;5.83;3.17;;;14.00;99.90;;;;;;5111920;28;20285;-71
2022/12/31 10:05:47;;;;;;;6.47;3.20;;;14.00;99.90;;;;;;5111491;28;20203;-71
2022/12/31 10:08:35;;;;;;;5.47;3.37;;;14.10;99.90;;;;;;5087173;28;20262;-71
2022/12/31 10:11:08;;;;;;;6.17;3.57;;;14.10;99.90;;;;;;5111907;28;20230;-72
2022/12/31 10:14:03;;;;;;;4.67;3.10;;;14.10;99.90;;;;;;5111592;28;20211;-70
2022/12/31 10:16:45;;;;;;;6.73;3.10;;;14.20;99.90;;;;;;5081683;28;20218;-71
2022/12/31 10:19:12;;;;;;;6.47;3.27;;;14.20;99.90;;;;;;5093320;28;20211;-70
2022/12/31 10:21:50;;;;;;;5.27;3.13;;;14.30;99.90;;;;;;5111084;28;20199;-71
2022/12/31 10:24:54;;;;;;;6.37;2.90;;;14.30;99.90;;;;;;5110650;28;20203;-70
2022/12/31 10:27:37;;;;;;;6.30;3.10;;;14.30;99.90;;;;;;5107936;28;20211;-72
2022/12/31 10:30:16;;;;;;;5.37;2.60;;;14.30;99.90;;;;;;5111320;28;20290;-71
2022/12/31 10:32:50;;;;;;;5.00;3.00;;;14.30;99.90;;;;;;5110808;28;20659;-71
2022/12/31 10:35:40;;;;;;;5.33;3.00;;;14.40;99.90;;;;;;5110751;28;20217;-72
2022/12/31 10:38:11;;;;;;;6.87;4.37;;;14.40;99.90;;;;;;5110610;28;20343;-70
2022/12/31 10:40:50;;;;;;;9.07;5.50;;;14.40;99.90;;;;;;5091536;28;20648;-71
2022/12/31 10:43:54;;;;;;;10.37;7.17;;;14.50;99.90;;;;;;5104283;28;20227;-70
2022/12/31 10:46:35;;;;;;;6.50;4.87;;;14.50;99.90;;;;;;5103391;28;20257;-70
2022/12/31 10:49:26;;;;;;;5.80;4.30;;;14.50;99.90;;;;;;5109086;28;20323;-69
2022/12/31 10:52:11;;;;;;;5.57;3.90;;;14.50;99.90;;;;;;5091913;28;20218;-70
2022/12/31 10:55:12;;;;;;;4.30;3.30;;;14.60;99.90;;;;;;5110594;28;20238;-70
2022/12/31 10:58:13;;;;;;;5.30;4.10;;;14.50;99.90;;;;;;5109255;28;20312;-69
2022/12/31 11:01:00;;;;;;;13.43;9.05;;;14.60;99.90;;;;;;5109424;28;20659;-69
2022/12/31 11:03:46;;;;;;;4.77;4.27;;;14.60;99.90;;;;;;5109756;28;20651;-70
2022/12/31 11:06:45;;;;;;;6.73;4.37;;;14.70;99.90;;;;;;5107404;28;20214;-70
2022/12/31 11:09:21;;;;;;;7.30;4.73;;;14.70;99.90;;;;;;5106743;28;20308;-70
2022/12/31 11:12:16;;;;;;;8.73;5.97;;;14.80;99.90;;;;;;5092434;28;20234;-70
2022/12/31 11:14:52;;;;;;;9.23;6.17;;;14.80;99.90;;;;;;5109544;28;20199;-70
2022/12/31 11:17:45;;;;;;;11.52;6.60;;;14.90;99.90;;;;;;5110477;28;20280;-71
2022/12/31 11:20:36;;;;;;;8.63;4.80;;;14.90;99.90;;;;;;5104210;28;20227;-70
2022/12/31 11:23:15;;;;;;;10.48;5.93;;;15.00;99.90;;;;;;5106065;28;20219;-70
2022/12/31 11:26:19;;;;;;;6.77;4.37;;;15.00;99.90;;;;;;5109394;28;20199;-71
2022/12/31 11:28:46;;;;;;;10.95;4.00;;;15.00;99.90;;;;;;5108332;28;20226;-70
2022/12/31 11:31:21;;;;;;;8.15;3.20;;;15.00;99.90;;;;;;5110111;28;20301;-70
2022/12/31 11:34:13;;;;;;;4.22;3.20;;;15.00;99.90;;;;;;5109788;28;20207;-71
2022/12/31 11:36:46;;;;;;;8.50;3.47;;;15.00;99.90;;;;;;5091482;28;20222;-71
2022/12/31 11:39:29;;;;;;;5.53;2.83;;;15.00;99.90;;;;;;5112141;28;20203;-73
2022/12/31 11:42:34;;;;;;;5.07;3.22;;;15.10;99.90;;;;;;5092728;28;21395;-69
2022/12/31 11:45:32;;;;;;;7.38;4.22;;;15.10;99.90;;;;;;5110990;28;20343;-70
2022/12/31 11:48:28;;;;;;;5.32;3.50;;;15.00;99.90;;;;;;5110311;28;20627;-70
2022/12/31 11:51:05;;;;;;;6.15;3.17;;;15.00;99.90;;;;;;5113865;28;20662;-70
2022/12/31 11:53:56;;;;;;;5.55;3.08;;;14.90;99.90;;;;;;5114023;28;20562;-70
2022/12/31 11:56:30;;;;;;;7.53;3.70;;;14.90;99.90;;;;;;5108666;28;20218;-70
2022/12/31 11:58:57;;;;;;;9.25;4.20;;;14.90;99.90;;;;;;5114005;28;20285;-70
2022/12/31 12:01:41;;;;;;;8.77;4.07;;;14.90;99.90;;;;;;5113997;28;20234;-70
2022/12/31 12:04:09;;;;;;;10.65;3.50;;;15.00;99.90;;;;;;5112084;28;20621;-70
2022/12/31 12:06:36;;;;;;;4.03;2.78;;;15.00;99.90;;;;;;5113724;28;20207;-70
2022/12/31 12:09:09;;;;;;;6.00;2.80;;;15.00;99.90;;;;;;5113735;28;20248;-70
2022/12/31 12:11:39;;;;;;;5.88;2.63;;;15.10;99.90;;;;;;5114107;28;20345;-70
2022/12/31 12:14:30;;;;;;;5.57;3.30;;;15.10;99.90;;;;;;5111588;28;20616;-70
2022/12/31 12:16:58;;;;;;;5.68;3.60;;;15.10;99.90;;;;;;5111563;28;20570;-69
2022/12/31 12:19:33;;;;;;;6.72;3.45;;;15.20;99.90;;;;;;5113723;28;20199;-70
2022/12/31 12:22:13;;;;;;;5.70;3.22;;;15.20;99.90;;;;;;5112203;28;20239;-68
2022/12/31 12:24:54;;;;;;;6.65;3.60;;;15.20;99.90;;;;;;5113898;28;20605;-70
2022/12/31 12:27:33;;;;;;;5.85;3.55;;;15.20;99.90;;;;;;5085066;28;20664;-70
2022/12/31 12:30:17;;;;;;;11.57;4.40;;;15.20;99.90;;;;;;5087213;28;20263;-69
2022/12/31 12:32:55;;;;;;;6.28;2.85;;;15.20;99.90;;;;;;5112916;28;20252;-69
2022/12/31 12:35:32;;;;;;;13.95;5.45;;;15.20;99.90;;;;;;5113416;28;20211;-70
2022/12/31 12:38:03;;;;;;;8.25;3.20;;;15.20;99.90;;;;;;5112479;28;20234;-70
2022/12/31 12:40:32;;;;;;;9.02;4.50;;;15.20;99.90;;;;;;5094691;28;20203;-70
2022/12/31 12:43:01;;;;;;;6.57;3.22;;;15.10;99.90;;;;;;5113564;28;20329;-70
2022/12/31 12:45:43;;;;;;;6.88;3.35;;;15.10;99.90;;;;;;5112952;28;20209;-70
2022/12/31 12:48:27;;;;;;;5.65;3.10;;;15.20;99.90;;;;;;5111085;28;20218;-70
2022/12/31 12:50:53;;;;;;;6.90;3.30;;;15.10;99.90;;;;;;5110875;28;20655;-70
2022/12/31 12:54:02;;;;;;;8.07;3.30;;;15.10;99.90;;;;;;5112948;28;20245;-70
2022/12/31 12:56:36;;;;;;;8.30;4.90;;;15.10;99.90;;;;;;5072817;28;20699;-71
2022/12/31 12:59:12;;;;;;;7.88;3.10;;;15.10;99.90;;;;;;5083253;28;20199;-70
2022/12/31 13:01:48;;;;;;;5.15;2.50;;;15.10;99.90;;;;;;5093330;28;20223;-70
2022/12/31 13:04:37;;;;;;;6.68;3.78;;;15.10;99.90;;;;;;5112736;28;20717;-69
2022/12/31 13:07:07;;;;;;;7.50;3.60;;;15.10;99.90;;;;;;5112671;28;20624;-70
2022/12/31 13:10:04;;;;;;;5.22;3.17;;;15.10;99.90;;;;;;5112491;28;20260;-71
2022/12/31 13:12:42;;;;;;;6.57;3.10;;;15.10;99.90;;;;;;5110553;28;20627;-68
2022/12/31 13:15:44;;;;;;;8.00;4.20;;;15.20;99.90;;;;;;5092947;28;20196;-70
2022/12/31 13:18:36;;;;;;;10.02;3.67;;;15.10;99.90;;;;;;5112342;28;20222;-71
2022/12/31 13:21:38;;;;;;;5.72;2.25;;;15.10;99.90;;;;;;5112204;28;20289;-70
2022/12/31 13:24:14;;;;;;;6.45;3.20;;;15.10;99.90;;;;;;5112335;28;20203;-70
2022/12/31 13:27:01;;;;;;;4.82;2.80;;;15.10;99.90;;;;;;5112538;28;20661;-70
2022/12/31 13:29:31;;;;;;;5.80;3.47;;;15.10;99.90;;;;;;5108692;28;20233;-71
2022/12/31 13:32:02;;;;;;;9.75;2.85;;;15.20;99.90;;;;;;5106799;28;20741;-71
2022/12/31 13:34:42;;;;;;;11.07;3.38;;;15.20;99.90;;;;;;5112535;28;20211;-71
2022/12/31 13:37:35;;;;;;;5.40;2.95;;;15.20;99.90;;;;;;5112197;28;20227;-72